Time;durP1;ratioP1;P1;durP2;ratioP2;P2;SDS_P1;SDS_P2;PMS_P1;PMS_P2;Temp;Humidity;BMP_temperature;BMP_pressure;BME280_temperature;BME280_humidity;BME280_pressure;Samples;Min_cycle;Max_cycle;Signal;HPM_P1;HPM_P2
2021/12/27 00:00:21;;;;;;;14.60;8.37;;;5.80;99.90;;;;;;5061756;28;20850;-59
2021/12/27 00:02:50;;;;;;;12.10;8.30;;;5.80;99.90;;;;;;5038106;28;20433;-60
2021/12/27 00:05:16;;;;;;;17.67;10.77;;;5.80;99.90;;;;;;5057576;28;20428;-60
2021/12/27 00:07:43;;;;;;;15.73;9.90;;;5.80;99.90;;;;;;5055478;28;20472;-60
2021/12/27 00:10:10;;;;;;;19.70;9.50;;;5.80;99.90;;;;;;5058140;28;20198;-60
2021/12/27 00:12:36;;;;;;;18.33;9.60;;;5.80;99.90;;;;;;5056734;28;20426;-60
2021/12/27 00:15:03;;;;;;;14.43;8.33;;;5.70;99.90;;;;;;5055176;28;20418;-61
2021/12/27 00:17:29;;;;;;;14.57;8.77;;;5.70;99.90;;;;;;5066053;22;20490;-57
2021/12/27 00:19:56;;;;;;;12.30;6.83;;;5.80;99.90;;;;;;5030497;28;20467;-60
2021/12/27 00:22:22;;;;;;;14.07;7.73;;;5.80;99.90;;;;;;5058338;28;20386;-58
2021/12/27 00:24:48;;;;;;;11.67;7.27;;;5.70;99.90;;;;;;5045768;28;20444;-56
2021/12/27 00:27:16;;;;;;;11.43;6.90;;;5.80;99.90;;;;;;5032529;28;20448;-58
2021/12/27 00:29:42;;;;;;;12.23;7.07;;;5.70;99.90;;;;;;5024117;28;20843;-58
2021/12/27 00:32:08;;;;;;;12.10;6.60;;;5.70;99.90;;;;;;5018030;28;20531;-57
2021/12/27 00:34:36;;;;;;;10.30;6.57;;;5.70;99.90;;;;;;5035264;28;20421;-58
2021/12/27 00:37:06;;;;;;;11.23;7.27;;;5.70;99.90;;;;;;5039095;28;20445;-58
2021/12/27 00:39:33;;;;;;;9.67;6.50;;;5.70;99.90;;;;;;5022940;28;20421;-58
2021/12/27 00:42:01;;;;;;;10.67;6.90;;;5.70;99.90;;;;;;5041779;28;20440;-56
2021/12/27 00:44:27;;;;;;;10.80;6.90;;;5.70;99.90;;;;;;5036134;28;20437;-60
2021/12/27 00:46:53;;;;;;;9.00;6.10;;;5.70;99.90;;;;;;5057784;28;20527;-59
2021/12/27 00:49:19;;;;;;;9.13;6.00;;;5.70;99.90;;;;;;5030999;28;20187;-60
2021/12/27 00:51:45;;;;;;;7.43;5.87;;;5.70;99.90;;;;;;5047741;28;20430;-58
2021/12/27 00:54:11;;;;;;;8.40;5.77;;;5.70;99.90;;;;;;5018196;28;20494;-60
2021/12/27 00:56:37;;;;;;;10.73;6.50;;;5.70;99.90;;;;;;5049820;28;20644;-57
2021/12/27 00:59:02;;;;;;;11.43;6.93;;;5.70;99.90;;;;;;5042783;28;20244;-58
2021/12/27 01:01:28;;;;;;;12.60;6.60;;;5.70;99.90;;;;;;5043157;28;20230;-58
2021/12/27 01:03:54;;;;;;;12.17;5.77;;;5.70;99.90;;;;;;5057720;28;20187;-61
2021/12/27 01:06:20;;;;;;;9.90;6.13;;;5.70;99.90;;;;;;5058700;28;20199;-58
2021/12/27 01:08:45;;;;;;;9.30;6.00;;;5.70;99.90;;;;;;5053828;28;20175;-59
2021/12/27 01:11:23;;;;;;;8.73;6.13;;;5.70;99.90;;;;;;5057742;28;20230;-59
2021/12/27 01:16:45;;;;;;;10.23;6.13;;;5.70;99.90;;;;;;5026841;28;20555;-57
2021/12/27 01:19:11;;;;;;;8.57;6.13;;;5.70;99.90;;;;;;5054446;28;20982;-59
2021/12/27 01:21:37;;;;;;;7.87;6.20;;;5.60;99.90;;;;;;5028420;28;20703;-58
2021/12/27 01:24:04;;;;;;;11.50;6.50;;;5.70;99.90;;;;;;5044356;28;20454;-60
2021/12/27 01:26:31;;;;;;;9.40;5.87;;;5.70;99.90;;;;;;5051909;28;20199;-59
2021/12/27 01:28:59;;;;;;;9.00;6.03;;;5.70;99.90;;;;;;5053233;28;20490;-61
2021/12/27 01:31:25;;;;;;;9.37;6.00;;;5.60;99.90;;;;;;5051467;28;20454;-59
2021/12/27 01:33:51;;;;;;;14.90;7.10;;;5.70;99.90;;;;;;5042270;28;20441;-59
2021/12/27 01:36:17;;;;;;;11.00;6.90;;;5.60;99.90;;;;;;5039165;28;20450;-58
2021/12/27 01:38:44;;;;;;;9.43;6.27;;;5.70;99.90;;;;;;5049891;28;20201;-58
2021/12/27 01:41:12;;;;;;;11.47;6.83;;;5.70;99.90;;;;;;5024313;28;20449;-58
2021/12/27 01:43:39;;;;;;;9.57;6.23;;;5.60;99.90;;;;;;5024017;28;20545;-60
2021/12/27 01:46:10;;;;;;;11.50;6.70;;;5.70;99.90;;;;;;5043690;28;20456;-59
2021/12/27 01:48:39;;;;;;;9.20;6.13;;;5.70;99.90;;;;;;5024992;28;20460;-58
2021/12/27 01:51:11;;;;;;;8.60;5.77;;;5.70;99.90;;;;;;5042125;28;20996;-59
2021/12/27 01:53:39;;;;;;;13.03;8.20;;;5.70;99.90;;;;;;5020334;28;20937;-58
2021/12/27 01:56:07;;;;;;;11.70;6.47;;;5.70;99.90;;;;;;5044762;28;20461;-58
2021/12/27 01:58:33;;;;;;;11.60;7.30;;;5.70;99.90;;;;;;5030173;28;21002;-57
2021/12/27 02:01:01;;;;;;;12.40;7.57;;;5.70;99.90;;;;;;5029004;28;20422;-57
2021/12/27 02:03:30;;;;;;;9.60;6.30;;;5.70;99.90;;;;;;5048026;28;20524;-58
2021/12/27 02:05:58;;;;;;;11.10;7.20;;;5.70;99.90;;;;;;5027957;28;20994;-58
2021/12/27 02:08:24;;;;;;;11.90;7.50;;;5.70;99.90;;;;;;5044164;28;20476;-57
2021/12/27 02:10:50;;;;;;;10.87;6.90;;;5.70;99.90;;;;;;5047571;28;20950;-59
2021/12/27 02:13:17;;;;;;;10.87;6.50;;;5.70;99.90;;;;;;5027249;28;20430;-58
2021/12/27 02:15:43;;;;;;;12.60;7.73;;;5.70;99.90;;;;;;5047440;28;20934;-57
2021/12/27 02:18:09;;;;;;;11.07;7.73;;;5.70;99.90;;;;;;5048082;28;20850;-58
2021/12/27 02:20:35;;;;;;;10.57;6.73;;;5.70;99.90;;;;;;5045229;28;20826;-57
2021/12/27 02:23:07;;;;;;;11.03;6.93;;;5.70;99.90;;;;;;5046981;28;20429;-60
2021/12/27 02:25:35;;;;;;;12.77;7.10;;;5.70;99.90;;;;;;5049051;28;20461;-59
2021/12/27 02:28:04;;;;;;;9.60;6.40;;;5.70;99.90;;;;;;5030023;28;20522;-58
2021/12/27 02:30:31;;;;;;;14.67;8.27;;;5.70;99.90;;;;;;5047253;28;20550;-58
2021/12/27 02:33:05;;;;;;;13.10;6.80;;;5.70;99.90;;;;;;5047462;28;20433;-57
2021/12/27 02:35:46;;;;;;;10.17;6.97;;;5.60;99.90;;;;;;5047493;28;20839;-57
2021/12/27 02:38:16;;;;;;;11.20;6.60;;;5.70;99.90;;;;;;5046397;28;20814;-60
2021/12/27 02:40:42;;;;;;;12.83;7.43;;;5.70;99.90;;;;;;5045482;28;20425;-58
2021/12/27 02:43:11;;;;;;;13.93;8.10;;;5.70;99.90;;;;;;5045994;28;20421;-57
2021/12/27 02:46:01;;;;;;;11.53;7.73;;;5.70;99.90;;;;;;5047696;28;20425;-56
2021/12/27 02:48:31;;;;;;;12.40;7.60;;;5.70;99.90;;;;;;5044913;28;20792;-61
2021/12/27 02:50:57;;;;;;;12.40;7.63;;;5.70;99.90;;;;;;5022892;28;20496;-58
2021/12/27 02:53:24;;;;;;;12.30;7.67;;;5.70;99.90;;;;;;5042658;28;20426;-56
2021/12/27 02:55:53;;;;;;;13.37;7.70;;;5.70;99.90;;;;;;5042917;28;20951;-58
2021/12/27 02:58:19;;;;;;;12.70;8.13;;;5.70;99.90;;;;;;5046210;28;21147;-57
2021/12/27 03:00:52;;;;;;;15.00;7.93;;;5.70;99.90;;;;;;5048532;28;20453;-58
2021/12/27 03:03:18;;;;;;;14.40;8.40;;;5.80;99.90;;;;;;5042837;28;20544;-58
2021/12/27 03:05:45;;;;;;;15.77;8.40;;;5.80;99.90;;;;;;5024954;28;20981;-58
2021/12/27 03:08:14;;;;;;;12.70;7.77;;;5.80;99.90;;;;;;5043243;28;20437;-58
2021/12/27 03:10:42;;;;;;;14.50;8.10;;;5.70;99.90;;;;;;5042258;28;20457;-59
2021/12/27 03:13:13;;;;;;;14.60;8.37;;;5.80;99.90;;;;;;5040675;28;20863;-58
2021/12/27 03:15:39;;;;;;;15.50;8.40;;;5.70;99.90;;;;;;5040486;28;20590;-60
2021/12/27 03:18:05;;;;;;;12.93;7.67;;;5.70;99.90;;;;;;5041695;28;20464;-57
2021/12/27 03:20:30;;;;;;;14.37;7.70;;;5.80;99.90;;;;;;5041623;28;20739;-56
2021/12/27 03:22:56;;;;;;;13.77;8.40;;;5.80;99.90;;;;;;5041937;28;20175;-58
2021/12/27 03:25:25;;;;;;;15.23;8.17;;;5.80;99.90;;;;;;5021983;28;20203;-61
2021/12/27 03:27:51;;;;;;;14.40;8.40;;;5.80;99.90;;;;;;5042361;28;20198;-58
2021/12/27 03:30:25;;;;;;;15.00;7.90;;;5.80;99.90;;;;;;5039476;28;21348;-57
2021/12/27 03:32:51;;;;;;;15.90;8.53;;;5.80;99.90;;;;;;5040322;28;20912;-60
2021/12/27 03:35:26;;;;;;;16.00;8.67;;;5.80;99.90;;;;;;5023026;28;20524;-58
2021/12/27 03:37:55;;;;;;;15.03;8.93;;;5.80;99.90;;;;;;5039001;28;20477;-59
2021/12/27 03:40:21;;;;;;;17.60;9.40;;;5.80;99.90;;;;;;5025081;28;20446;-57
2021/12/27 03:42:51;;;;;;;17.57;9.33;;;5.80;99.90;;;;;;5043200;28;20792;-58
2021/12/27 03:45:20;;;;;;;14.50;8.03;;;5.80;99.90;;;;;;5039925;28;20527;-59
2021/12/27 03:47:47;;;;;;;18.43;10.40;;;5.70;99.90;;;;;;5043685;28;20540;-59
2021/12/27 03:50:12;;;;;;;21.50;10.90;;;5.70;99.90;;;;;;5037806;28;20469;-60
2021/12/27 03:52:38;;;;;;;23.67;10.93;;;5.80;99.90;;;;;;5041627;28;20433;-58
2021/12/27 03:55:06;;;;;;;20.17;10.37;;;5.80;99.90;;;;;;5041909;28;20418;-58
2021/12/27 03:57:34;;;;;;;17.50;10.30;;;5.70;99.90;;;;;;5041879;28;20218;-58
2021/12/27 04:02:40;;;;;;;17.90;9.60;;;5.70;99.90;;;;;;5042459;28;20450;-58
2021/12/27 04:05:08;;;;;;;19.70;9.83;;;5.70;99.90;;;;;;5038984;28;20423;-55
2021/12/27 04:07:36;;;;;;;19.13;9.20;;;5.70;99.90;;;;;;5040440;28;20202;-58
2021/12/27 04:10:04;;;;;;;15.77;9.10;;;5.70;99.90;;;;;;5040031;28;20670;-58
2021/12/27 04:12:30;;;;;;;17.97;8.70;;;5.70;99.90;;;;;;5041835;28;20682;-58
2021/12/27 04:14:55;;;;;;;15.27;8.53;;;5.70;99.90;;;;;;5040661;28;20536;-60
2021/12/27 04:17:21;;;;;;;17.33;8.33;;;5.70;99.90;;;;;;5042314;28;20214;-58
2021/12/27 04:19:47;;;;;;;16.33;9.03;;;5.70;99.90;;;;;;5039064;28;20296;-58
2021/12/27 04:22:12;;;;;;;14.23;8.57;;;5.70;99.90;;;;;;5023494;28;20227;-58
2021/12/27 04:24:38;;;;;;;16.07;8.50;;;5.70;99.90;;;;;;5038532;28;20235;-61
2021/12/27 04:27:04;;;;;;;11.77;7.93;;;5.70;99.90;;;;;;5038940;28;20743;-58
2021/12/27 04:29:29;;;;;;;13.73;8.17;;;5.70;99.90;;;;;;5039270;28;20650;-59
2021/12/27 04:31:55;;;;;;;16.80;8.70;;;5.70;99.90;;;;;;5040411;28;20183;-58
2021/12/27 04:34:20;;;;;;;18.63;9.00;;;5.70;99.90;;;;;;5040592;28;20603;-59
2021/12/27 04:36:46;;;;;;;15.90;8.80;;;5.70;99.90;;;;;;5041480;28;20650;-58
2021/12/27 04:39:12;;;;;;;15.63;9.27;;;5.70;99.90;;;;;;5022681;28;20591;-60
2021/12/27 04:41:38;;;;;;;18.60;9.10;;;5.70;99.90;;;;;;5024031;28;20677;-61
2021/12/27 04:44:04;;;;;;;14.60;8.70;;;5.70;99.90;;;;;;5040219;28;20179;-57
2021/12/27 04:46:30;;;;;;;13.47;8.27;;;5.70;99.90;;;;;;5041216;28;20203;-58
2021/12/27 04:48:55;;;;;;;20.73;9.80;;;5.70;99.90;;;;;;5041006;28;20430;-58
2021/12/27 04:51:21;;;;;;;21.57;9.60;;;5.70;99.90;;;;;;5023072;28;20532;-61
2021/12/27 04:53:49;;;;;;;17.13;9.07;;;5.60;99.90;;;;;;5040426;28;20207;-58
2021/12/27 04:56:15;;;;;;;17.30;8.37;;;5.70;99.90;;;;;;5040830;28;20852;-57
2021/12/27 04:58:44;;;;;;;19.70;9.27;;;5.60;99.90;;;;;;5041462;28;20429;-57
2021/12/27 05:01:10;;;;;;;15.20;8.90;;;5.60;99.90;;;;;;5022199;28;20195;-58
2021/12/27 05:03:35;;;;;;;18.07;8.87;;;5.60;99.90;;;;;;5039976;28;20441;-58
2021/12/27 05:06:01;;;;;;;16.23;8.60;;;5.60;99.90;;;;;;5040888;28;20622;-57
2021/12/27 05:08:27;;;;;;;19.13;9.47;;;5.60;99.90;;;;;;5045035;28;20217;-59
2021/12/27 05:10:52;;;;;;;18.07;9.27;;;5.60;99.90;;;;;;5043283;28;20299;-59
2021/12/27 05:13:18;;;;;;;15.87;9.10;;;5.60;99.90;;;;;;5044760;28;20235;-60
2021/12/27 05:15:44;;;;;;;17.47;8.70;;;5.60;99.90;;;;;;5044159;28;20206;-56
2021/12/27 05:18:10;;;;;;;15.67;8.47;;;5.60;99.90;;;;;;5044747;28;20203;-59
2021/12/27 05:20:36;;;;;;;19.77;9.60;;;5.60;99.90;;;;;;5027516;28;20665;-58
2021/12/27 05:23:01;;;;;;;17.30;8.67;;;5.60;99.90;;;;;;5044003;28;20425;-58
2021/12/27 05:25:27;;;;;;;16.83;9.70;;;5.60;99.90;;;;;;5045972;28;20198;-56
2021/12/27 05:27:53;;;;;;;21.47;10.07;;;5.60;99.90;;;;;;5043107;28;20191;-60
2021/12/27 05:30:20;;;;;;;17.00;9.70;;;5.60;99.90;;;;;;5042451;28;20330;-58
2021/12/27 05:32:46;;;;;;;15.40;9.00;;;5.60;99.90;;;;;;5042679;28;20187;-59
2021/12/27 05:35:13;;;;;;;15.50;9.50;;;5.60;99.90;;;;;;5043995;28;20440;-56
2021/12/27 05:37:39;;;;;;;18.60;9.87;;;5.60;99.90;;;;;;5040646;28;20274;-57
2021/12/27 05:40:08;;;;;;;18.47;10.07;;;5.70;99.90;;;;;;5043743;28;20735;-58
2021/12/27 05:42:35;;;;;;;20.30;11.17;;;5.60;99.90;;;;;;5043805;28;20430;-55
2021/12/27 05:45:03;;;;;;;17.70;9.87;;;5.70;99.90;;;;;;5044867;28;20760;-57
2021/12/27 05:47:28;;;;;;;19.00;9.83;;;5.70;99.90;;;;;;5044103;28;20532;-55
2021/12/27 05:49:54;;;;;;;15.87;9.00;;;5.70;99.90;;;;;;5043049;28;20898;-55
2021/12/27 05:52:20;;;;;;;15.67;9.27;;;5.70;99.90;;;;;;5044520;28;20614;-56
2021/12/27 05:54:46;;;;;;;16.23;9.27;;;5.70;99.90;;;;;;5025717;28;20498;-58
2021/12/27 05:57:12;;;;;;;17.77;9.80;;;5.70;99.90;;;;;;5043823;28;20973;-54
2021/12/27 05:59:37;;;;;;;16.33;9.57;;;5.70;99.90;;;;;;5046370;28;20642;-56
2021/12/27 06:02:03;;;;;;;18.63;9.13;;;5.70;99.90;;;;;;5043679;28;20211;-57
2021/12/27 06:04:29;;;;;;;17.00;9.77;;;5.70;99.90;;;;;;5045117;28;20209;-56
2021/12/27 06:06:54;;;;;;;16.60;9.53;;;5.70;99.90;;;;;;5044611;28;20203;-58
2021/12/27 06:09:20;;;;;;;20.07;10.10;;;5.70;99.90;;;;;;5047148;28;20265;-57
2021/12/27 06:11:45;;;;;;;17.33;10.10;;;5.70;99.90;;;;;;5030092;28;20186;-56
2021/12/27 06:14:12;;;;;;;15.80;8.93;;;5.70;99.90;;;;;;5026874;28;20185;-57
2021/12/27 06:16:38;;;;;;;16.20;9.10;;;5.70;99.90;;;;;;5047203;23;20194;-59
2021/12/27 06:19:04;;;;;;;15.03;8.93;;;5.70;99.90;;;;;;5044224;28;20415;-59
2021/12/27 06:21:31;;;;;;;16.80;10.60;;;5.70;99.90;;;;;;5044304;28;20186;-60
2021/12/27 06:23:57;;;;;;;18.10;11.57;;;5.70;99.90;;;;;;5043776;28;20167;-60
2021/12/27 06:26:22;;;;;;;17.43;10.33;;;5.70;99.90;;;;;;5045239;28;20989;-59
2021/12/27 06:28:48;;;;;;;18.43;10.60;;;5.70;99.90;;;;;;5047453;28;20420;-60
2021/12/27 06:31:14;;;;;;;20.93;12.40;;;5.70;99.90;;;;;;5046804;28;20313;-59
2021/12/27 06:33:39;;;;;;;16.33;10.80;;;5.70;99.90;;;;;;5047882;28;20207;-60
2021/12/27 06:36:05;;;;;;;22.20;11.60;;;5.70;99.90;;;;;;5046545;28;20546;-59
2021/12/27 06:38:31;;;;;;;18.97;11.80;;;5.70;99.90;;;;;;5044568;28;20191;-60
2021/12/27 06:40:58;;;;;;;20.10;10.97;;;5.70;99.90;;;;;;5046072;28;20650;-59
2021/12/27 06:43:24;;;;;;;19.37;10.30;;;5.70;99.90;;;;;;5046294;28;20167;-60
2021/12/27 06:45:50;;;;;;;17.97;10.30;;;5.70;99.90;;;;;;5027677;28;20433;-60
2021/12/27 06:48:16;;;;;;;22.53;11.43;;;5.70;99.90;;;;;;5046725;28;20494;-60
2021/12/27 06:50:42;;;;;;;21.07;10.63;;;5.70;99.90;;;;;;5044889;28;20504;-59
2021/12/27 06:53:08;;;;;;;20.43;10.83;;;5.70;99.90;;;;;;5046751;28;20235;-60
2021/12/27 06:55:33;;;;;;;22.40;10.90;;;5.70;99.90;;;;;;5043214;28;20525;-59
2021/12/27 06:57:59;;;;;;;20.27;10.70;;;5.70;99.90;;;;;;5045698;28;20252;-58
2021/12/27 07:00:24;;;;;;;20.00;10.30;;;5.70;99.90;;;;;;5045235;28;20183;-60
2021/12/27 07:02:50;;;;;;;20.10;11.10;;;5.70;99.90;;;;;;5046414;28;20187;-60
2021/12/27 07:05:17;;;;;;;19.93;11.10;;;5.70;99.90;;;;;;5045767;28;20692;-59
2021/12/27 07:07:43;;;;;;;19.00;10.70;;;5.70;99.90;;;;;;5045473;28;20314;-58
2021/12/27 07:10:12;;;;;;;15.80;9.43;;;5.70;99.90;;;;;;5044750;28;20524;-60
2021/12/27 07:12:39;;;;;;;18.07;10.10;;;5.70;99.90;;;;;;5044430;28;20171;-60
2021/12/27 07:15:06;;;;;;;15.57;8.90;;;5.60;99.90;;;;;;5045767;28;20765;-60
2021/12/27 07:17:32;;;;;;;16.97;10.23;;;5.70;99.90;;;;;;5046688;28;20491;-60
2021/12/27 07:19:58;;;;;;;13.83;8.53;;;5.70;99.90;;;;;;5045027;28;20414;-59
2021/12/27 07:22:23;;;;;;;13.23;7.63;;;5.60;99.90;;;;;;5028738;28;20175;-59
2021/12/27 07:24:49;;;;;;;13.27;8.20;;;5.60;99.90;;;;;;5045891;28;20940;-59
2021/12/27 07:27:15;;;;;;;13.40;8.40;;;5.60;99.90;;;;;;5042849;28;20797;-58
2021/12/27 07:29:40;;;;;;;13.80;8.93;;;5.60;99.90;;;;;;5040556;28;20721;-59
2021/12/27 07:32:06;;;;;;;12.57;7.63;;;5.60;99.90;;;;;;5042642;28;20171;-59
2021/12/27 07:34:32;;;;;;;14.20;8.80;;;5.60;99.90;;;;;;5044310;28;20595;-60
2021/12/27 07:36:58;;;;;;;15.37;9.37;;;5.60;99.90;;;;;;5045451;28;20445;-60
2021/12/27 07:39:26;;;;;;;14.87;8.63;;;5.60;99.90;;;;;;5046345;28;20451;-59
2021/12/27 07:41:53;;;;;;;15.43;9.50;;;5.50;99.90;;;;;;5045182;28;20178;-60
2021/12/27 07:44:18;;;;;;;17.33;9.83;;;5.60;99.90;;;;;;5024969;28;21154;-59
2021/12/27 07:46:46;;;;;;;15.80;9.07;;;5.50;99.90;;;;;;5025705;28;20534;-59
2021/12/27 07:49:13;;;;;;;19.27;10.13;;;5.60;99.90;;;;;;5042119;28;20175;-59
2021/12/27 07:51:39;;;;;;;16.70;9.30;;;5.50;99.90;;;;;;5041905;28;20437;-60
2021/12/27 07:54:05;;;;;;;21.80;11.10;;;5.50;99.90;;;;;;5045188;28;20507;-59
2021/12/27 07:56:32;;;;;;;16.23;9.30;;;5.60;99.90;;;;;;5045377;28;20474;-59
2021/12/27 07:59:03;;;;;;;16.60;9.33;;;5.60;99.90;;;;;;5043384;28;20472;-57
2021/12/27 08:01:30;;;;;;;16.20;9.40;;;5.60;99.90;;;;;;5044835;28;20461;-59
2021/12/27 08:03:56;;;;;;;15.53;9.23;;;5.60;99.90;;;;;;5042300;28;20430;-60
2021/12/27 08:06:21;;;;;;;15.40;9.30;;;5.60;99.90;;;;;;5039222;28;20726;-58
2021/12/27 08:08:47;;;;;;;15.70;9.00;;;5.60;99.90;;;;;;5039468;28;20623;-58
2021/12/27 08:11:12;;;;;;;14.63;8.90;;;5.60;99.90;;;;;;5033959;28;20241;-62
2021/12/27 08:13:42;;;;;;;15.40;10.10;;;5.60;99.90;;;;;;5034449;28;20566;-62
2021/12/27 08:16:11;;;;;;;17.37;10.40;;;5.70;99.90;;;;;;5032394;28;20496;-59
2021/12/27 08:18:37;;;;;;;14.97;9.70;;;5.70;99.90;;;;;;5039262;28;20465;-61
2021/12/27 08:21:03;;;;;;;18.87;9.30;;;5.70;99.90;;;;;;5036389;28;20484;-61
2021/12/27 08:23:29;;;;;;;16.27;9.40;;;5.70;99.90;;;;;;5022946;28;20487;-61
2021/12/27 08:25:55;;;;;;;13.33;8.20;;;5.70;99.90;;;;;;5038321;28;20437;-61
2021/12/27 08:28:21;;;;;;;17.73;9.47;;;5.70;99.90;;;;;;5038506;28;20303;-60
2021/12/27 08:30:46;;;;;;;18.10;9.80;;;5.70;99.90;;;;;;5042153;28;20214;-62
2021/12/27 08:33:12;;;;;;;15.20;9.13;;;5.70;99.90;;;;;;5051159;28;20437;-61
2021/12/27 08:35:40;;;;;;;14.40;9.00;;;5.70;99.90;;;;;;5040318;28;20186;-60
2021/12/27 08:38:06;;;;;;;17.40;9.13;;;5.70;99.90;;;;;;5042098;28;20223;-61
2021/12/27 08:40:31;;;;;;;14.27;8.67;;;5.80;99.90;;;;;;5039702;28;20882;-60
2021/12/27 08:42:57;;;;;;;13.47;9.07;;;5.80;99.90;;;;;;5045046;28;20175;-61
2021/12/27 08:45:22;;;;;;;14.90;8.97;;;5.80;99.90;;;;;;5044984;28;20183;-62
2021/12/27 08:47:48;;;;;;;14.97;9.07;;;5.80;99.90;;;;;;5041068;28;20282;-61
2021/12/27 08:50:17;;;;;;;12.50;7.27;;;5.80;99.90;;;;;;5041597;28;20327;-60
2021/12/27 08:52:47;;;;;;;14.57;7.80;;;5.90;99.90;;;;;;5045405;28;20179;-61
2021/12/27 08:55:13;;;;;;;11.60;7.03;;;5.80;99.90;;;;;;5040992;28;20945;-60
2021/12/27 08:57:39;;;;;;;13.57;7.80;;;5.80;99.90;;;;;;5042565;28;20453;-60
2021/12/27 09:00:08;;;;;;;9.17;6.60;;;5.90;99.90;;;;;;5037748;28;20964;-62
2021/12/27 09:02:34;;;;;;;10.50;6.47;;;5.80;99.90;;;;;;5023106;28;20445;-60
2021/12/27 09:05:00;;;;;;;10.80;6.40;;;5.90;99.90;;;;;;5041594;28;20449;-61
2021/12/27 09:07:26;;;;;;;10.90;7.13;;;5.90;99.90;;;;;;5048017;28;20459;-60
2021/12/27 09:09:52;;;;;;;14.93;7.60;;;5.90;99.90;;;;;;5044031;28;20211;-61
2021/12/27 09:12:17;;;;;;;13.17;7.53;;;5.90;99.90;;;;;;5042633;28;20600;-60
2021/12/27 09:14:43;;;;;;;13.80;8.40;;;5.90;99.90;;;;;;5040845;28;20186;-60
2021/12/27 09:17:09;;;;;;;12.07;7.70;;;6.00;99.90;;;;;;5039653;28;20209;-61
2021/12/27 09:19:35;;;;;;;9.60;6.77;;;6.00;99.90;;;;;;5041696;28;21469;-62
2021/12/27 09:22:01;;;;;;;13.30;8.07;;;6.00;99.90;;;;;;5044632;28;20433;-61
2021/12/27 09:24:28;;;;;;;12.70;7.67;;;6.00;99.90;;;;;;5040567;28;20190;-60
2021/12/27 09:26:54;;;;;;;10.57;6.77;;;6.10;99.90;;;;;;5045485;28;20969;-60
2021/12/27 09:29:20;;;;;;;11.13;7.83;;;6.10;99.90;;;;;;5044523;28;20421;-61
2021/12/27 09:31:46;;;;;;;11.97;7.40;;;6.10;99.90;;;;;;5041657;28;20569;-61
2021/12/27 09:34:12;;;;;;;13.03;7.37;;;6.20;99.90;;;;;;5046570;28;20488;-60
2021/12/27 09:36:38;;;;;;;10.97;6.97;;;6.20;99.90;;;;;;5043028;28;20175;-61
2021/12/27 09:39:04;;;;;;;9.60;5.97;;;6.20;99.90;;;;;;5044302;28;20318;-59
2021/12/27 09:41:30;;;;;;;10.40;6.80;;;6.30;99.90;;;;;;5043892;28;20360;-59
2021/12/27 09:43:56;;;;;;;11.30;7.30;;;6.30;99.90;;;;;;5039153;28;20924;-61
2021/12/27 09:46:22;;;;;;;10.40;7.00;;;6.30;99.90;;;;;;5052508;28;20285;-59
2021/12/27 09:48:50;;;;;;;9.67;6.80;;;6.30;99.90;;;;;;5031888;28;20422;-61
2021/12/27 09:51:16;;;;;;;11.27;7.07;;;6.30;99.90;;;;;;5048987;28;20453;-61
2021/12/27 09:53:42;;;;;;;12.53;7.50;;;6.40;99.90;;;;;;5031280;28;20428;-61
2021/12/27 09:56:09;;;;;;;9.70;5.87;;;6.40;99.90;;;;;;5049632;28;20410;-60
2021/12/27 09:58:36;;;;;;;9.40;6.57;;;6.40;99.90;;;;;;5049518;28;20582;-61
2021/12/27 10:01:03;;;;;;;8.97;5.77;;;6.50;99.90;;;;;;5049340;28;20430;-61
2021/12/27 10:03:30;;;;;;;9.83;6.30;;;6.50;99.90;;;;;;5037525;28;20418;-60
2021/12/27 10:06:11;;;;;;;11.70;7.33;;;6.50;99.90;;;;;;5049093;28;20443;-60
2021/12/27 10:08:37;;;;;;;10.70;6.67;;;6.60;99.90;;;;;;5046035;28;20465;-61
2021/12/27 10:11:02;;;;;;;11.30;6.87;;;6.70;99.90;;;;;;5048439;28;20838;-61
2021/12/27 10:13:29;;;;;;;9.13;6.17;;;6.70;99.90;;;;;;5050599;28;20264;-61
2021/12/27 10:15:55;;;;;;;8.47;5.53;;;6.70;99.90;;;;;;5029617;28;20225;-61
2021/12/27 10:18:22;;;;;;;11.53;7.07;;;6.70;99.90;;;;;;5048704;28;20949;-61
2021/12/27 10:20:49;;;;;;;10.03;6.50;;;6.80;99.90;;;;;;5048134;28;21039;-61
2021/12/27 10:23:19;;;;;;;12.20;7.20;;;6.80;99.90;;;;;;5049101;28;20472;-61
2021/12/27 10:25:49;;;;;;;9.60;6.93;;;6.80;99.90;;;;;;5049583;28;20511;-61
2021/12/27 10:28:15;;;;;;;11.30;7.20;;;6.80;99.90;;;;;;5034093;28;20461;-60
2021/12/27 10:30:45;;;;;;;8.63;5.97;;;6.80;99.90;;;;;;5053730;28;20445;-61
2021/12/27 10:33:20;;;;;;;10.13;6.27;;;6.80;99.90;;;;;;5046095;28;20610;-61
2021/12/27 10:35:52;;;;;;;8.33;5.30;;;6.80;99.90;;;;;;5046749;28;20470;-60
2021/12/27 10:38:22;;;;;;;6.70;5.13;;;6.90;99.90;;;;;;5031656;28;20898;-61
2021/12/27 10:40:56;;;;;;;8.87;5.57;;;6.90;99.90;;;;;;5028833;28;20442;-61
2021/12/27 10:43:41;;;;;;;9.63;5.40;;;6.90;99.90;;;;;;5048522;28;20427;-61
2021/12/27 10:46:15;;;;;;;7.70;5.40;;;7.00;99.90;;;;;;5045029;28;20434;-61
2021/12/27 10:48:43;;;;;;;7.90;5.30;;;7.00;99.90;;;;;;5049078;28;20470;-61
2021/12/27 10:51:10;;;;;;;10.30;6.07;;;7.00;99.90;;;;;;5048387;28;20453;-59
2021/12/27 10:53:42;;;;;;;5.73;4.80;;;7.00;99.90;;;;;;5046959;28;20422;-61
2021/12/27 10:56:07;;;;;;;7.90;5.80;;;7.00;99.90;;;;;;5045539;28;20421;-60
2021/12/27 10:58:38;;;;;;;8.10;5.10;;;7.00;99.90;;;;;;5045052;28;20818;-61
2021/12/27 11:01:09;;;;;;;7.10;5.03;;;7.00;99.90;;;;;;5053170;28;20520;-61
2021/12/27 11:03:39;;;;;;;7.13;4.70;;;7.10;99.90;;;;;;5048383;28;20430;-61
2021/12/27 11:06:07;;;;;;;7.73;5.20;;;7.10;99.90;;;;;;5046953;28;20430;-61
2021/12/27 11:08:34;;;;;;;5.37;4.47;;;7.10;99.90;;;;;;5044464;28;20522;-59
2021/12/27 11:11:02;;;;;;;6.30;5.00;;;7.20;99.90;;;;;;5043855;28;20453;-58
2021/12/27 11:13:28;;;;;;;9.03;5.20;;;7.30;99.90;;;;;;5049372;28;20409;-59
2021/12/27 11:15:55;;;;;;;7.10;5.00;;;7.40;99.90;;;;;;5047160;28;20422;-59
2021/12/27 11:18:21;;;;;;;8.00;5.13;;;7.60;99.90;;;;;;5045743;28;20453;-59
2021/12/27 11:20:52;;;;;;;7.90;5.57;;;7.70;99.90;;;;;;5048346;28;20921;-59
2021/12/27 11:23:21;;;;;;;6.10;4.47;;;7.80;99.90;;;;;;5047591;28;20425;-59
2021/12/27 11:25:47;;;;;;;6.43;4.60;;;7.90;99.90;;;;;;5045768;28;20426;-59
2021/12/27 11:28:34;;;;;;;5.80;4.20;;;7.90;99.90;;;;;;5046114;28;20433;-58
2021/12/27 11:31:14;;;;;;;6.30;4.80;;;7.90;99.90;;;;;;5049320;28;20538;-59
2021/12/27 11:33:55;;;;;;;5.97;4.60;;;7.80;99.90;;;;;;5046663;28;20456;-58
2021/12/27 11:36:24;;;;;;;5.17;4.30;;;7.80;99.90;;;;;;5037633;28;20492;-59
2021/12/27 11:38:49;;;;;;;6.37;5.30;;;7.80;99.90;;;;;;5059733;28;20445;-58
2021/12/27 11:41:24;;;;;;;5.50;4.20;;;7.70;99.90;;;;;;5050905;28;20803;-59
2021/12/27 11:44:02;;;;;;;6.83;4.27;;;7.70;99.90;;;;;;5029252;28;20174;-59
2021/12/27 11:46:52;;;;;;;5.23;3.90;;;7.60;99.90;;;;;;5041575;28;20434;-59
2021/12/27 11:49:44;;;;;;;5.25;4.10;;;7.60;99.90;;;;;;5042021;28;20418;-58
2021/12/27 11:52:31;;;;;;;5.70;4.70;;;7.60;99.90;;;;;;5048197;28;20539;-59
2021/12/27 11:55:14;;;;;;;8.67;4.63;;;7.70;99.90;;;;;;5045913;28;20429;-59
2021/12/27 11:57:42;;;;;;;7.20;5.10;;;7.80;99.90;;;;;;5023777;28;20461;-59
2021/12/27 12:00:32;;;;;;;5.63;3.90;;;7.80;99.90;;;;;;5048842;28;20433;-58
2021/12/27 12:03:03;;;;;;;6.00;3.83;;;7.90;99.90;;;;;;5029615;28;20828;-60
2021/12/27 12:05:44;;;;;;;5.13;4.10;;;8.00;99.90;;;;;;5043993;28;20432;-58
2021/12/27 12:08:16;;;;;;;5.77;4.57;;;8.00;99.90;;;;;;5047866;28;20511;-59
2021/12/27 12:11:00;;;;;;;4.87;4.37;;;8.10;99.90;;;;;;5032672;28;20460;-59
2021/12/27 12:13:36;;;;;;;4.83;3.83;;;8.10;99.90;;;;;;5042228;28;20852;-60
2021/12/27 12:16:03;;;;;;;6.60;5.40;;;8.20;99.90;;;;;;5045304;28;20482;-59
2021/12/27 12:18:31;;;;;;;6.73;4.83;;;8.20;99.90;;;;;;5036723;28;20485;-59
2021/12/27 12:20:57;;;;;;;7.50;3.90;;;8.20;99.90;;;;;;5044325;28;20434;-59
2021/12/27 12:23:23;;;;;;;5.80;4.37;;;8.20;99.90;;;;;;5044441;28;20777;-59
2021/12/27 12:25:58;;;;;;;6.03;4.33;;;8.30;99.90;;;;;;5058863;28;20927;-59
2021/12/27 12:28:24;;;;;;;5.20;4.10;;;8.30;99.90;;;;;;5047643;28;20792;-60
2021/12/27 12:30:51;;;;;;;6.60;4.30;;;8.40;99.90;;;;;;5048505;28;20457;-59
2021/12/27 12:33:28;;;;;;;4.47;3.90;;;8.40;99.90;;;;;;5050205;28;20456;-60
2021/12/27 12:36:01;;;;;;;4.10;3.57;;;8.40;99.90;;;;;;5050687;28;20425;-61
2021/12/27 12:38:32;;;;;;;4.10;3.53;;;8.40;99.90;;;;;;5051558;28;20940;-59
2021/12/27 12:41:00;;;;;;;4.70;3.37;;;8.40;99.90;;;;;;5042231;28;20429;-60
2021/12/27 12:43:38;;;;;;;5.27;4.20;;;8.30;99.90;;;;;;5052689;28;20432;-61
2021/12/27 12:46:38;;;;;;;3.47;3.17;;;8.30;99.90;;;;;;5051832;28;20417;-62
2021/12/27 12:49:14;;;;;;;4.57;3.60;;;8.20;99.90;;;;;;5049343;28;20538;-61
2021/12/27 12:51:59;;;;;;;12.30;8.03;;;8.10;99.90;;;;;;5057513;28;20487;-61
2021/12/27 12:54:38;;;;;;;5.30;4.20;;;8.00;99.90;;;;;;5052876;28;20508;-61
2021/12/27 12:57:17;;;;;;;6.17;4.23;;;8.00;99.90;;;;;;5034771;28;20521;-60